createdAt,value
2018-02-18T00:00:58.840Z,19.94
2018-02-18T00:01:58.751Z,20.03
2018-02-18T00:03:50.510Z,20.03
2018-02-18T00:04:50.454Z,19.98
2018-02-18T00:06:42.246Z,19.98
2018-02-18T00:07:42.159Z,19.95
2018-02-18T00:09:33.923Z,19.97
2018-02-18T00:10:33.870Z,19.88
2018-02-18T00:12:25.684Z,19.94
2018-02-18T00:13:25.599Z,19.93
2018-02-18T00:15:17.364Z,19.93
2018-02-18T00:16:17.309Z,19.87
2018-02-18T00:18:09.126Z,19.87
2018-02-18T00:19:09.038Z,19.87
2018-02-18T00:21:00.820Z,19.79
2018-02-18T00:22:00.765Z,19.78
2018-02-18T00:23:52.579Z,19.75
2018-02-18T00:24:52.494Z,19.73
2018-02-18T00:26:44.256Z,19.75
2018-02-18T00:27:44.200Z,19.73
2018-02-18T00:29:35.996Z,19.69
2018-02-18T00:30:35.909Z,19.69
2018-02-18T00:32:27.673Z,19.66
2018-02-18T00:33:27.618Z,19.72
2018-02-18T00:35:19.433Z,19.73
2018-02-18T00:36:19.347Z,19.68
2018-02-18T00:38:11.109Z,19.70
2018-02-18T00:39:11.054Z,19.69
2018-02-18T00:41:02.846Z,19.68
2018-02-18T00:42:02.762Z,19.66
2018-02-18T00:43:54.579Z,19.69
2018-02-18T00:44:54.525Z,19.69
2018-02-18T00:46:46.317Z,19.76
2018-02-18T00:47:46.234Z,19.69
2018-02-18T00:49:37.994Z,19.66
2018-02-18T00:50:38.004Z,19.69
2018-02-18T00:52:29.756Z,19.68
2018-02-18T00:53:29.670Z,19.73
2018-02-18T00:55:21.483Z,19.79
2018-02-18T00:56:21.427Z,19.83
2018-02-18T00:58:13.219Z,19.76
2018-02-18T00:59:13.134Z,19.73
2018-02-18T01:01:04.897Z,19.69
2018-02-18T01:02:04.842Z,19.70
2018-02-18T01:03:56.635Z,19.70
2018-02-18T01:04:56.545Z,19.63
2018-02-18T01:06:48.309Z,19.76
2018-02-18T01:07:48.254Z,19.66
2018-02-18T01:09:40.043Z,19.65
2018-02-18T01:10:39.959Z,19.63
2018-02-18T01:12:31.719Z,19.66
2018-02-18T01:13:31.664Z,19.66
2018-02-18T01:15:23.456Z,19.70
2018-02-18T01:16:23.371Z,19.61
2018-02-18T01:18:15.162Z,19.63
2018-02-18T01:19:15.081Z,19.68
2018-02-18T01:21:06.872Z,19.63
2018-02-18T01:22:06.813Z,19.65
2018-02-18T01:23:59.621Z,19.76
2018-02-18T01:24:59.665Z,19.73
2018-02-18T01:26:52.367Z,19.60
2018-02-18T01:27:52.279Z,19.51
2018-02-18T01:29:45.053Z,19.47
2018-02-18T01:30:44.997Z,19.46
2018-02-18T01:32:37.798Z,19.51
2018-02-18T01:33:37.711Z,19.40
2018-02-18T01:35:30.481Z,19.43
2018-02-18T01:36:30.425Z,19.42
2018-02-18T01:38:23.238Z,19.35
2018-02-18T01:39:23.138Z,19.36
2018-02-18T01:41:15.915Z,19.39
2018-02-18T01:42:15.860Z,19.32
2018-02-18T01:44:08.662Z,19.33
2018-02-18T01:45:08.575Z,19.38
2018-02-18T01:47:01.346Z,19.24
2018-02-18T01:48:01.290Z,19.29
2018-02-18T01:49:54.093Z,19.39
2018-02-18T01:50:54.007Z,19.33
2018-02-18T01:52:46.779Z,19.25
2018-02-18T01:53:46.722Z,19.25
2018-02-18T01:55:39.524Z,19.23
2018-02-18T01:56:39.436Z,19.35
2018-02-18T01:58:32.213Z,19.24
2018-02-18T01:59:32.153Z,19.32
2018-02-18T02:01:24.960Z,19.21
2018-02-18T02:02:24.874Z,19.24
2018-02-18T02:04:17.723Z,19.21
2018-02-18T02:05:17.668Z,19.29
2018-02-18T02:07:10.472Z,19.25
2018-02-18T02:08:10.389Z,19.23
2018-02-18T02:10:03.189Z,19.28
2018-02-18T02:11:03.104Z,19.17
2018-02-18T02:12:55.905Z,19.15
2018-02-18T02:13:55.818Z,19.08
2018-02-18T02:15:48.593Z,19.18
2018-02-18T02:16:48.540Z,19.13
2018-02-18T02:18:41.342Z,19.23
2018-02-18T02:19:41.256Z,19.14
2018-02-18T02:21:34.032Z,19.18
2018-02-18T02:22:33.975Z,19.10
2018-02-18T02:24:26.778Z,19.15
2018-02-18T02:25:26.691Z,19.02
2018-02-18T02:27:19.466Z,19.20
2018-02-18T02:28:19.410Z,19.05
2018-02-18T02:30:12.218Z,19.06
2018-02-18T02:31:12.134Z,19.06
2018-02-18T02:33:04.910Z,18.98
2018-02-18T02:34:04.861Z,18.94
2018-02-18T02:35:57.659Z,19.11
2018-02-18T02:36:57.568Z,19.01
2018-02-18T02:38:50.343Z,19.05
2018-02-18T02:39:50.290Z,18.97
2018-02-18T02:41:43.092Z,18.97
2018-02-18T02:42:43.003Z,19.10
2018-02-18T02:44:35.777Z,18.98
2018-02-18T02:45:35.719Z,19.02
2018-02-18T02:47:28.526Z,18.99
2018-02-18T02:48:28.436Z,18.94
2018-02-18T02:50:21.208Z,18.91
2018-02-18T02:51:21.151Z,18.97
2018-02-18T02:53:13.953Z,18.90
2018-02-18T02:54:13.866Z,18.90
2018-02-18T02:56:06.643Z,18.90
2018-02-18T02:57:06.585Z,18.92
2018-02-18T02:58:59.387Z,18.95
2018-02-18T02:59:59.300Z,18.90
2018-02-18T03:01:52.075Z,18.87
2018-02-18T03:02:52.017Z,18.83
2018-02-18T03:04:44.823Z,18.90
2018-02-18T03:05:44.734Z,18.92
2018-02-18T03:07:37.512Z,18.90
2018-02-18T03:08:37.452Z,18.92
2018-02-18T03:10:30.256Z,18.83
2018-02-18T03:11:30.172Z,18.86
2018-02-18T03:13:22.944Z,18.86
2018-02-18T03:14:22.889Z,18.80
2018-02-18T03:16:15.693Z,18.84
2018-02-18T03:17:15.604Z,18.73
2018-02-18T03:19:08.383Z,18.87
2018-02-18T03:20:08.328Z,18.82
2018-02-18T03:22:01.132Z,18.77
2018-02-18T03:23:01.045Z,18.79
2018-02-18T03:24:53.818Z,18.80
2018-02-18T03:25:53.761Z,18.79
2018-02-18T03:27:46.600Z,18.80
2018-02-18T03:28:46.511Z,18.73
2018-02-18T03:30:39.285Z,18.79
2018-02-18T03:31:39.229Z,18.70
2018-02-18T03:33:32.029Z,18.76
2018-02-18T03:34:31.945Z,18.72
2018-02-18T03:36:24.716Z,18.73
2018-02-18T03:37:24.659Z,18.72
2018-02-18T03:39:17.463Z,18.72
2018-02-18T03:40:17.375Z,18.76
2018-02-18T03:42:10.148Z,18.68
2018-02-18T03:43:10.093Z,18.73
2018-02-18T03:45:02.894Z,18.72
2018-02-18T03:46:02.810Z,18.64
2018-02-18T03:47:55.580Z,18.74
2018-02-18T03:48:55.528Z,18.65
2018-02-18T03:50:48.324Z,18.61
2018-02-18T03:51:48.237Z,18.70
2018-02-18T03:53:41.011Z,18.59
2018-02-18T03:54:40.952Z,18.65
2018-02-18T03:56:33.754Z,18.65
2018-02-18T03:57:33.667Z,18.62
2018-02-18T03:59:26.438Z,18.62
2018-02-18T04:00:26.382Z,18.59
2018-02-18T04:02:19.186Z,18.64
2018-02-18T04:03:19.099Z,18.65
2018-02-18T04:05:11.870Z,18.58
2018-02-18T04:06:11.814Z,18.58
2018-02-18T04:08:04.614Z,18.62
2018-02-18T04:09:04.531Z,18.57
2018-02-18T04:10:57.303Z,18.62
2018-02-18T04:11:57.246Z,18.62
2018-02-18T04:13:50.048Z,18.62
2018-02-18T04:14:49.960Z,18.58
2018-02-18T04:16:42.731Z,18.64
2018-02-18T04:17:42.675Z,18.57
2018-02-18T04:19:35.479Z,18.50
2018-02-18T04:20:35.395Z,18.54
2018-02-18T04:22:28.165Z,18.54
2018-02-18T04:23:28.109Z,18.44
2018-02-18T04:25:20.914Z,18.61
2018-02-18T04:26:20.827Z,18.47
2018-02-18T04:28:13.602Z,18.57
2018-02-18T04:29:13.546Z,18.52
2018-02-18T04:31:06.352Z,18.54
2018-02-18T04:32:06.261Z,18.49
2018-02-18T04:33:59.035Z,18.44
2018-02-18T04:34:58.983Z,18.46
2018-02-18T04:36:51.782Z,18.40
2018-02-18T04:37:51.694Z,18.44
2018-02-18T04:39:44.470Z,18.46
2018-02-18T04:40:44.411Z,18.42
2018-02-18T04:42:37.214Z,18.46
2018-02-18T04:43:37.127Z,18.47
2018-02-18T04:45:29.899Z,18.40
2018-02-18T04:46:29.840Z,18.46
2018-02-18T04:48:22.642Z,18.42
2018-02-18T04:49:22.555Z,18.42
2018-02-18T04:51:15.329Z,18.46
2018-02-18T04:52:15.273Z,18.43
2018-02-18T04:54:08.079Z,18.43
2018-02-18T04:55:07.992Z,18.40
2018-02-18T04:57:00.762Z,18.40
2018-02-18T04:58:00.705Z,18.44
2018-02-18T04:59:53.509Z,18.44
2018-02-18T05:00:53.419Z,18.43
2018-02-18T05:02:46.195Z,18.42
2018-02-18T05:03:46.138Z,18.42
2018-02-18T05:05:38.940Z,18.34
2018-02-18T05:06:38.854Z,18.40
2018-02-18T05:08:31.626Z,18.40
2018-02-18T05:09:31.570Z,18.33
2018-02-18T05:11:24.375Z,18.31
2018-02-18T05:12:24.288Z,18.34
2018-02-18T05:14:17.059Z,18.33
2018-02-18T05:15:17.002Z,18.33
2018-02-18T05:17:09.805Z,18.33
2018-02-18T05:18:09.718Z,18.34
2018-02-18T05:20:02.489Z,18.37
2018-02-18T05:21:02.433Z,18.28
2018-02-18T05:22:55.238Z,18.25
2018-02-18T05:23:55.150Z,18.24
2018-02-18T05:25:47.922Z,18.25
2018-02-18T05:26:47.863Z,18.19
2018-02-18T05:28:40.664Z,18.22
2018-02-18T05:29:40.577Z,18.24
2018-02-18T05:31:33.351Z,18.25
2018-02-18T05:32:33.293Z,18.24
2018-02-18T05:34:26.094Z,18.29
2018-02-18T05:35:26.007Z,18.25
2018-02-18T05:37:18.778Z,18.21
2018-02-18T05:38:18.720Z,18.22
2018-02-18T05:40:11.523Z,18.27
2018-02-18T05:41:11.436Z,18.22
2018-02-18T05:43:04.208Z,18.25
2018-02-18T05:44:04.153Z,18.18
2018-02-18T05:45:56.952Z,18.27
2018-02-18T05:46:56.866Z,18.28
2018-02-18T05:48:49.635Z,18.33
2018-02-18T05:49:49.578Z,18.18
2018-02-18T05:51:42.381Z,18.22
2018-02-18T05:52:42.294Z,18.24
2018-02-18T05:54:35.064Z,18.19
2018-02-18T05:55:35.006Z,18.19
2018-02-18T05:57:27.811Z,18.28
2018-02-18T05:58:27.722Z,18.18
2018-02-18T06:00:20.499Z,18.28
2018-02-18T06:01:20.440Z,18.24
2018-02-18T06:03:13.246Z,18.29
2018-02-18T06:04:13.160Z,18.22
2018-02-18T06:06:05.932Z,18.21
2018-02-18T06:07:05.875Z,18.19
2018-02-18T06:08:58.682Z,18.15
2018-02-18T06:09:58.592Z,18.15
2018-02-18T06:11:51.373Z,18.22
2018-02-18T06:12:51.309Z,18.19
2018-02-18T06:14:44.109Z,18.15
2018-02-18T06:15:44.022Z,18.22
2018-02-18T06:17:36.796Z,18.13
2018-02-18T06:18:36.739Z,18.18
2018-02-18T06:20:29.539Z,18.13
2018-02-18T06:21:29.454Z,18.22
2018-02-18T06:23:22.225Z,18.21
2018-02-18T06:24:22.168Z,18.15
2018-02-18T06:26:14.971Z,18.10
2018-02-18T06:27:14.882Z,18.09
2018-02-18T06:29:07.657Z,18.10
2018-02-18T06:30:07.600Z,18.15
2018-02-18T06:32:00.409Z,18.17
2018-02-18T06:33:00.321Z,18.10
2018-02-18T06:34:53.092Z,18.09
2018-02-18T06:35:53.035Z,18.12
2018-02-18T06:37:45.838Z,18.09
2018-02-18T06:38:45.754Z,18.06
2018-02-18T06:40:38.522Z,18.07
2018-02-18T06:41:38.464Z,18.12
2018-02-18T06:43:31.265Z,18.07
2018-02-18T06:44:31.178Z,18.13
2018-02-18T06:46:23.951Z,18.06
2018-02-18T06:47:23.896Z,18.09
2018-02-18T06:49:16.698Z,18.12
2018-02-18T06:50:16.618Z,18.12
2018-02-18T06:52:09.384Z,18.07
2018-02-18T06:53:09.326Z,18.09
2018-02-18T06:55:02.128Z,18.10
2018-02-18T06:56:02.040Z,18.10
2018-02-18T06:57:54.812Z,18.09
2018-02-18T06:58:54.754Z,18.09
2018-02-18T07:00:47.558Z,18.07
2018-02-18T07:01:47.467Z,18.09
2018-02-18T07:03:40.242Z,18.10
2018-02-18T07:04:40.185Z,18.12
2018-02-18T07:06:32.986Z,18.13
2018-02-18T07:07:32.898Z,18.09
2018-02-18T07:09:25.670Z,18.07
2018-02-18T07:10:25.611Z,18.10
2018-02-18T07:12:18.413Z,18.09
2018-02-18T07:13:18.325Z,18.12
2018-02-18T07:15:11.098Z,18.07
2018-02-18T07:16:11.040Z,18.07
2018-02-18T07:18:03.846Z,18.15
2018-02-18T07:19:03.755Z,18.12
2018-02-18T07:20:56.528Z,18.13
2018-02-18T07:21:56.470Z,18.13
2018-02-18T07:23:49.275Z,18.09
2018-02-18T07:24:49.184Z,18.06
2018-02-18T07:26:41.953Z,18.13
2018-02-18T07:27:41.897Z,18.12
2018-02-18T07:29:34.701Z,18.15
2018-02-18T07:30:34.630Z,18.12
2018-02-18T07:32:27.384Z,18.13
2018-02-18T07:33:27.331Z,18.09
2018-02-18T07:35:20.127Z,18.07
2018-02-18T07:36:20.041Z,18.12
2018-02-18T07:38:12.815Z,18.09
2018-02-18T07:39:12.753Z,18.09
2018-02-18T07:41:05.564Z,18.10
2018-02-18T07:42:05.473Z,18.06
2018-02-18T07:43:58.241Z,18.09
2018-02-18T07:44:58.185Z,18.12
2018-02-18T07:46:50.988Z,18.15
2018-02-18T07:47:50.900Z,18.13
2018-02-18T07:49:43.673Z,18.10
2018-02-18T07:50:43.615Z,18.13
2018-02-18T07:52:36.414Z,18.24
2018-02-18T07:53:36.327Z,18.33
2018-02-18T07:55:29.102Z,18.37
2018-02-18T07:56:29.042Z,18.22
2018-02-18T07:58:21.849Z,18.25
2018-02-18T07:59:21.762Z,18.29
2018-02-18T08:01:14.536Z,18.25
2018-02-18T08:02:14.479Z,18.22
2018-02-18T08:04:07.284Z,18.27
2018-02-18T08:05:07.193Z,18.25
2018-02-18T08:06:59.966Z,18.19
2018-02-18T08:07:59.910Z,18.24
2018-02-18T08:09:52.716Z,18.22
2018-02-18T08:10:52.625Z,18.21
2018-02-18T08:12:45.396Z,18.13
2018-02-18T08:13:45.341Z,18.17
2018-02-18T08:15:38.147Z,18.24
2018-02-18T08:16:38.059Z,18.22
2018-02-18T08:18:30.830Z,18.19
2018-02-18T08:19:30.770Z,18.13
2018-02-18T08:21:23.576Z,18.27
2018-02-18T08:22:23.489Z,18.19
2018-02-18T08:24:16.257Z,18.24
2018-02-18T08:25:16.200Z,18.22
2018-02-18T08:27:09.001Z,18.28
2018-02-18T08:28:08.915Z,18.31
2018-02-18T08:30:01.713Z,18.37
2018-02-18T08:31:01.633Z,18.47
2018-02-18T08:32:54.434Z,18.50
2018-02-18T08:33:54.345Z,18.61
2018-02-18T08:35:47.155Z,18.86
2018-02-18T08:36:47.059Z,19.32
2018-02-18T08:38:39.864Z,20.27
2018-02-18T08:39:39.773Z,20.09
2018-02-18T08:41:32.548Z,20.27
2018-02-18T08:42:32.490Z,20.77
2018-02-18T08:44:25.301Z,21.92
2018-02-18T08:45:25.211Z,22.64
2018-02-18T08:47:17.984Z,23.75
2018-02-18T08:48:17.932Z,23.94
2018-02-18T08:50:10.736Z,24.31
2018-02-18T08:51:10.652Z,24.49
2018-02-18T08:53:03.429Z,24.88
2018-02-18T08:54:03.374Z,24.77
2018-02-18T08:55:56.183Z,25.02
2018-02-18T08:56:56.098Z,25.16
2018-02-18T08:58:48.876Z,25.49
2018-02-18T08:59:48.822Z,25.54
2018-02-18T09:01:41.632Z,25.80
2018-02-18T09:02:41.549Z,25.82
2018-02-18T09:04:34.331Z,25.68
2018-02-18T09:05:34.278Z,25.83
2018-02-18T09:07:27.087Z,25.91
2018-02-18T09:08:27.005Z,25.87
2018-02-18T09:10:19.789Z,25.99
2018-02-18T09:11:19.731Z,25.90
2018-02-18T09:13:12.545Z,26.32
2018-02-18T09:14:12.458Z,26.39
2018-02-18T09:16:05.244Z,26.35
2018-02-18T09:17:05.191Z,26.27
2018-02-18T09:18:57.999Z,26.32
2018-02-18T09:19:57.917Z,26.32
2018-02-18T09:21:50.699Z,26.72
2018-02-18T09:22:50.647Z,26.79
2018-02-18T09:24:43.459Z,26.81
2018-02-18T09:25:43.376Z,27.10
2018-02-18T09:27:36.156Z,27.46
2018-02-18T09:28:36.104Z,27.47
2018-02-18T09:30:28.914Z,27.53
2018-02-18T09:31:28.833Z,27.84
2018-02-18T09:33:21.617Z,28.11
2018-02-18T09:34:21.566Z,28.07
2018-02-18T09:36:14.381Z,28.38
2018-02-18T09:37:14.299Z,28.40
2018-02-18T09:39:07.085Z,28.56
2018-02-18T09:40:07.032Z,28.41
2018-02-18T09:41:59.854Z,28.69
2018-02-18T09:42:59.764Z,28.72
2018-02-18T09:44:52.546Z,28.73
2018-02-18T09:45:52.494Z,28.68
2018-02-18T09:47:45.316Z,28.03
2018-02-18T09:48:45.229Z,27.13
2018-02-18T09:50:38.013Z,25.62
2018-02-18T09:51:37.959Z,25.05
2018-02-18T09:53:30.767Z,24.50
2018-02-18T09:54:30.687Z,24.39
2018-02-18T09:56:23.473Z,24.24
2018-02-18T09:57:23.420Z,24.17
2018-02-18T09:59:16.227Z,24.10
2018-02-18T10:00:16.146Z,24.13
2018-02-18T10:02:08.930Z,24.08
2018-02-18T10:03:08.873Z,24.00
2018-02-18T10:05:01.684Z,24.01
2018-02-18T10:06:01.604Z,24.02
2018-02-18T10:07:54.385Z,24.22
2018-02-18T10:08:54.333Z,24.32
2018-02-18T10:10:47.146Z,24.35
2018-02-18T10:11:47.093Z,24.37
2018-02-18T10:13:39.845Z,24.77
2018-02-18T10:14:39.793Z,25.31
2018-02-18T10:16:32.608Z,27.01
2018-02-18T10:17:32.531Z,27.92
2018-02-18T10:19:25.310Z,27.64
2018-02-18T10:20:25.260Z,28.47
2018-02-18T10:22:18.080Z,29.45
2018-02-18T10:23:17.995Z,29.81
2018-02-18T10:25:10.840Z,30.21
2018-02-18T10:26:10.730Z,30.08
2018-02-18T10:28:03.548Z,30.03
2018-02-18T10:29:03.470Z,29.75
2018-02-18T10:30:56.255Z,26.24
2018-02-18T10:31:56.206Z,25.43
2018-02-18T10:33:49.022Z,24.82
2018-02-18T10:34:48.941Z,24.88
2018-02-18T10:36:41.730Z,24.61
2018-02-18T10:37:41.676Z,24.42
2018-02-18T10:39:34.492Z,23.97
2018-02-18T10:40:34.410Z,23.87
2018-02-18T10:42:27.193Z,23.67
2018-02-18T10:43:27.140Z,23.58
2018-02-18T10:45:19.951Z,23.35
2018-02-18T10:46:19.870Z,23.24
2018-02-18T10:48:12.650Z,23.17
2018-02-18T10:49:12.602Z,23.19
2018-02-18T10:51:05.409Z,23.17
2018-02-18T10:52:05.328Z,23.20
2018-02-18T10:53:58.105Z,23.09
2018-02-18T10:54:58.056Z,23.20
2018-02-18T10:56:50.869Z,23.04
2018-02-18T10:57:50.783Z,23.11
2018-02-18T10:59:43.566Z,23.01
2018-02-18T11:00:43.513Z,22.97
2018-02-18T11:02:36.325Z,22.96
2018-02-18T11:03:36.241Z,22.97
2018-02-18T11:05:29.023Z,22.92
2018-02-18T11:06:28.967Z,22.90
2018-02-18T11:08:21.779Z,22.89
2018-02-18T11:09:21.694Z,22.89
2018-02-18T11:11:14.473Z,22.84
2018-02-18T11:12:14.421Z,22.83
2018-02-18T11:14:07.229Z,22.84
2018-02-18T11:15:07.146Z,22.86
2018-02-18T11:16:59.924Z,22.80
2018-02-18T11:17:59.870Z,22.74
2018-02-18T11:19:52.680Z,22.74
2018-02-18T11:20:52.596Z,22.74
2018-02-18T11:22:45.375Z,22.69
2018-02-18T11:23:45.322Z,22.71
2018-02-18T11:25:38.133Z,22.69
2018-02-18T11:26:38.048Z,22.62
2018-02-18T11:28:30.826Z,22.72
2018-02-18T11:29:30.773Z,22.67
2018-02-18T11:31:23.583Z,22.65
2018-02-18T11:32:23.500Z,22.59
2018-02-18T11:34:16.281Z,22.65
2018-02-18T11:35:16.242Z,22.68
2018-02-18T11:37:09.033Z,22.78
2018-02-18T11:38:08.947Z,22.87
2018-02-18T11:40:01.723Z,22.84
2018-02-18T11:41:01.668Z,22.90
2018-02-18T11:42:54.474Z,22.90
2018-02-18T11:43:54.390Z,22.94
2018-02-18T11:45:47.170Z,23.07
2018-02-18T11:46:47.118Z,23.04
2018-02-18T11:48:39.925Z,23.19
2018-02-18T11:49:39.840Z,23.19
2018-02-18T11:51:32.620Z,23.12
2018-02-18T11:52:32.566Z,23.14
2018-02-18T11:54:25.374Z,23.19
2018-02-18T11:55:25.289Z,23.20
2018-02-18T11:57:18.069Z,23.08
2018-02-18T11:58:18.015Z,23.09
2018-02-18T12:00:10.824Z,23.26
2018-02-18T12:01:10.740Z,23.35
2018-02-18T12:03:03.519Z,23.20
2018-02-18T12:04:03.465Z,23.19
2018-02-18T12:05:56.272Z,23.15
2018-02-18T12:06:56.189Z,23.29
2018-02-18T12:08:48.968Z,23.26
2018-02-18T12:09:48.914Z,23.26
2018-02-18T12:11:41.726Z,23.29
2018-02-18T12:12:41.640Z,23.40
2018-02-18T12:14:34.420Z,23.31
2018-02-18T12:15:34.366Z,23.31
2018-02-18T12:17:27.176Z,23.24
2018-02-18T12:18:27.095Z,23.19
2018-02-18T12:20:19.874Z,23.15
2018-02-18T12:21:19.820Z,23.14
2018-02-18T12:23:12.631Z,23.09
2018-02-18T12:24:12.546Z,23.07
2018-02-18T12:26:05.322Z,23.04
2018-02-18T12:27:05.270Z,23.04
2018-02-18T12:28:58.078Z,23.08
2018-02-18T12:29:57.995Z,22.97
2018-02-18T12:31:50.776Z,23.07
2018-02-18T12:32:50.720Z,22.99
2018-02-18T12:34:43.533Z,23.01
2018-02-18T12:35:43.448Z,22.93
2018-02-18T12:37:36.225Z,22.90
2018-02-18T12:38:36.171Z,22.94
2018-02-18T12:40:28.978Z,22.93
2018-02-18T12:41:28.896Z,22.87
2018-02-18T12:43:21.676Z,22.83
2018-02-18T12:44:21.624Z,22.87
2018-02-18T12:46:14.433Z,22.82
2018-02-18T12:47:14.351Z,22.82
2018-02-18T12:49:07.126Z,22.84
2018-02-18T12:50:07.072Z,22.82
2018-02-18T12:51:59.885Z,22.82
2018-02-18T12:52:59.797Z,22.83
2018-02-18T12:54:52.575Z,22.74
2018-02-18T12:55:52.522Z,22.82
2018-02-18T12:57:45.364Z,22.74
2018-02-18T12:58:45.246Z,22.80
2018-02-18T13:00:38.024Z,22.75
2018-02-18T13:01:37.971Z,22.72
2018-02-18T13:03:30.778Z,22.71
2018-02-18T13:04:30.695Z,22.74
2018-02-18T13:06:23.472Z,22.71
2018-02-18T13:07:23.424Z,22.71
2018-02-18T13:09:16.232Z,22.68
2018-02-18T13:10:16.141Z,22.60
2018-02-18T13:12:08.918Z,22.57
2018-02-18T13:13:08.864Z,22.59
2018-02-18T13:15:01.672Z,22.67
2018-02-18T13:16:01.587Z,22.60
2018-02-18T13:17:54.365Z,22.54
2018-02-18T13:18:54.313Z,22.64
2018-02-18T13:20:47.118Z,22.64
2018-02-18T13:21:47.034Z,22.64
2018-02-18T13:23:39.811Z,22.60
2018-02-18T13:24:39.756Z,22.60
2018-02-18T13:26:32.567Z,22.57
2018-02-18T13:27:32.479Z,22.64
2018-02-18T13:29:25.258Z,22.47
2018-02-18T13:30:25.207Z,22.60
2018-02-18T13:32:18.023Z,22.56
2018-02-18T13:33:17.928Z,22.60
2018-02-18T13:35:10.710Z,22.52
2018-02-18T13:36:10.656Z,22.60
2018-02-18T13:38:03.464Z,22.56
2018-02-18T13:39:03.405Z,22.50
2018-02-18T13:40:56.157Z,22.56
2018-02-18T13:41:56.102Z,22.56
2018-02-18T13:43:48.915Z,22.56
2018-02-18T13:44:48.828Z,22.59
2018-02-18T13:46:41.606Z,22.65
2018-02-18T13:47:41.552Z,22.67
2018-02-18T13:49:34.359Z,22.60
2018-02-18T13:50:34.274Z,22.59
2018-02-18T13:52:27.054Z,22.52
2018-02-18T13:53:26.999Z,22.52
2018-02-18T13:55:19.806Z,22.47
2018-02-18T13:56:19.723Z,22.44
2018-02-18T13:58:12.502Z,22.46
2018-02-18T13:59:12.447Z,22.43
2018-02-18T14:01:05.257Z,22.43
2018-02-18T14:02:05.176Z,22.52
2018-02-18T14:03:57.952Z,22.35
2018-02-18T14:04:57.896Z,22.39
2018-02-18T14:06:50.707Z,22.38
2018-02-18T14:07:50.621Z,22.39
2018-02-18T14:09:43.396Z,22.37
2018-02-18T14:10:43.341Z,22.38
2018-02-18T14:12:36.152Z,22.44
2018-02-18T14:13:36.067Z,22.47
2018-02-18T14:15:28.844Z,22.35
2018-02-18T14:16:28.792Z,22.46
2018-02-18T14:18:21.600Z,22.38
2018-02-18T14:19:21.517Z,22.37
2018-02-18T14:21:14.294Z,22.52
2018-02-18T14:22:14.239Z,22.54
2018-02-18T14:24:07.048Z,22.60
2018-02-18T14:25:06.964Z,22.60
2018-02-18T14:26:59.741Z,22.57
2018-02-18T14:27:59.690Z,22.62
2018-02-18T14:29:52.499Z,22.56
2018-02-18T14:30:52.412Z,22.60
2018-02-18T14:32:45.188Z,22.56
2018-02-18T14:33:45.135Z,22.60
2018-02-18T14:35:37.944Z,22.60
2018-02-18T14:36:37.856Z,22.62
2018-02-18T14:38:30.634Z,22.69
2018-02-18T14:39:30.580Z,22.64
2018-02-18T14:41:23.389Z,22.62
2018-02-18T14:42:23.308Z,22.60
2018-02-18T14:44:16.083Z,22.47
2018-02-18T14:45:16.028Z,22.59
2018-02-18T14:47:08.839Z,22.53
2018-02-18T14:48:08.750Z,22.43
2018-02-18T14:50:01.526Z,22.22
2018-02-18T14:51:01.544Z,22.25
2018-02-18T14:52:54.279Z,22.31
2018-02-18T14:53:54.294Z,22.28
2018-02-18T14:55:46.973Z,22.31
2018-02-18T14:56:46.918Z,22.37
2018-02-18T14:58:39.727Z,22.43
2018-02-18T14:59:39.638Z,22.50
2018-02-18T15:01:32.425Z,22.57
2018-02-18T15:02:32.364Z,22.54
2018-02-18T15:04:25.173Z,22.52
2018-02-18T15:05:25.090Z,22.52
2018-02-18T15:07:17.866Z,22.52
2018-02-18T15:08:17.812Z,22.47
2018-02-18T15:10:10.621Z,22.44
2018-02-18T15:11:10.540Z,22.53
2018-02-18T15:13:03.317Z,22.53
2018-02-18T15:14:03.267Z,22.54
2018-02-18T15:15:56.073Z,22.59
2018-02-18T15:16:55.987Z,22.59
2018-02-18T15:18:48.768Z,22.56
2018-02-18T15:19:48.712Z,22.56
2018-02-18T15:21:41.522Z,22.56
2018-02-18T15:22:41.441Z,22.64
2018-02-18T15:24:34.216Z,22.65
2018-02-18T15:25:34.161Z,22.62
2018-02-18T15:27:26.969Z,22.53
2018-02-18T15:28:26.885Z,22.62
2018-02-18T15:30:19.662Z,22.62
2018-02-18T15:31:19.610Z,22.71
2018-02-18T15:33:12.418Z,22.72
2018-02-18T15:34:12.336Z,22.65
2018-02-18T15:36:05.113Z,22.71
2018-02-18T16:11:28.533Z,10.10
2018-02-18T16:12:28.018Z,8.37
2018-02-18T16:14:22.345Z,5.78
2018-02-18T16:15:21.809Z,4.43
2018-02-18T16:17:15.484Z,3.05
2018-02-18T16:18:15.381Z,2.44
2018-02-18T16:20:09.597Z,2.13
2018-02-18T16:21:09.574Z,1.99
2018-02-18T16:23:04.472Z,1.69
2018-02-18T16:24:03.801Z,1.79
2018-02-18T16:25:57.947Z,1.80
2018-02-18T16:26:57.975Z,1.76
2018-02-18T16:28:52.196Z,1.72
2018-02-18T16:29:51.977Z,1.62
2018-02-18T16:31:46.380Z,1.60
2018-02-18T16:32:54.044Z,1.57
2018-02-18T16:34:42.738Z,1.54
2018-02-18T16:35:41.598Z,1.55
2018-02-18T16:37:36.385Z,1.51
2018-02-18T16:38:35.810Z,1.54
2018-02-18T16:40:29.870Z,1.52
2018-02-18T16:41:38.535Z,1.58
2018-02-18T16:43:23.167Z,1.54
2018-02-18T16:44:22.819Z,1.57
2018-02-18T16:46:16.034Z,1.55
2018-02-18T16:47:15.952Z,1.51
2018-02-18T16:49:11.673Z,1.50
2018-02-18T16:50:10.552Z,1.44
2018-02-18T16:52:04.824Z,1.46
2018-02-18T16:53:04.614Z,1.46
2018-02-18T16:54:57.726Z,1.51
2018-02-18T16:55:57.801Z,1.55
2018-02-18T16:57:52.341Z,1.55
2018-02-18T16:58:52.264Z,1.44
2018-02-18T17:00:45.247Z,1.46
2018-02-18T17:01:44.529Z,1.43
2018-02-18T17:03:39.932Z,1.55
2018-02-18T17:04:39.544Z,1.51
2018-02-18T17:06:34.215Z,1.55
2018-02-18T17:07:32.417Z,1.37
2018-02-18T17:09:25.729Z,1.55
2018-02-18T17:10:25.406Z,1.55
2018-02-18T17:12:19.008Z,1.37
2018-02-18T17:13:18.844Z,1.47
2018-02-18T17:15:13.083Z,1.44
2018-02-18T17:16:12.871Z,1.39
2018-02-18T17:18:06.333Z,1.46
2018-02-18T17:19:05.878Z,1.46
2018-02-18T17:21:00.393Z,1.39
2018-02-18T17:22:00.358Z,1.44
2018-02-18T17:23:53.714Z,1.36
2018-02-18T17:24:53.397Z,1.36
2018-02-18T17:26:46.976Z,1.36
2018-02-18T17:27:46.608Z,1.42
2018-02-18T17:29:40.045Z,1.36
2018-02-18T17:30:39.780Z,1.47
2018-02-18T17:32:34.396Z,1.44
2018-02-18T17:33:34.039Z,1.42
2018-02-18T17:35:28.356Z,1.44
2018-02-18T17:36:28.444Z,1.40
2018-02-18T17:38:22.336Z,1.47
2018-02-18T17:39:21.853Z,1.44
2018-02-18T17:41:15.673Z,1.42
2018-02-18T17:42:14.719Z,1.40
2018-02-18T17:44:08.072Z,1.42
2018-02-18T17:45:07.860Z,1.40
2018-02-18T17:47:02.452Z,1.44
2018-02-18T17:48:02.080Z,1.42
2018-02-18T17:49:55.262Z,1.39
2018-02-18T17:50:55.173Z,1.42
2018-02-18T17:52:48.903Z,1.40
2018-02-18T17:53:48.432Z,1.26
2018-02-18T17:55:42.011Z,1.29
2018-02-18T17:56:41.621Z,1.33
2018-02-18T17:58:35.204Z,1.36
2018-02-18T17:59:34.923Z,1.29
2018-02-18T18:01:29.407Z,1.26
2018-02-18T18:02:29.083Z,1.29
2018-02-18T18:04:22.300Z,1.26
2018-02-18T18:05:22.143Z,1.28
2018-02-18T18:07:15.838Z,1.29
2018-02-18T18:08:15.433Z,1.25
2018-02-18T18:10:08.950Z,1.21
2018-02-18T18:11:08.688Z,1.16
2018-02-18T18:13:02.215Z,1.18
2018-02-18T18:14:01.774Z,1.14
2018-02-18T18:15:55.046Z,1.22
2018-02-18T18:16:54.959Z,1.24
2018-02-18T18:18:49.613Z,1.28
2018-02-18T18:19:49.478Z,1.36
2018-02-18T18:21:42.647Z,1.34
2018-02-18T18:22:42.522Z,1.28
2018-02-18T18:24:35.735Z,1.34
2018-02-18T18:25:35.560Z,1.25
2018-02-18T18:27:28.957Z,1.25
2018-02-18T18:28:28.749Z,1.24
2018-02-18T18:30:22.309Z,1.29
2018-02-18T18:31:21.988Z,1.28
2018-02-18T18:33:15.297Z,1.33
2018-02-18T18:34:15.206Z,1.29
2018-02-18T18:36:08.607Z,1.28
2018-02-18T18:37:08.347Z,1.28
2018-02-18T18:39:01.976Z,1.28
2018-02-18T18:40:01.574Z,1.32
2018-02-18T18:41:55.056Z,1.33
2018-02-18T18:42:54.766Z,1.24
2018-02-18T18:44:49.228Z,1.42
2018-02-18T18:45:48.972Z,1.32
2018-02-18T18:47:42.478Z,1.33
2018-02-18T18:48:42.165Z,1.32
2018-02-18T18:50:36.536Z,1.36
2018-02-18T18:51:36.382Z,1.29
2018-02-18T18:53:29.785Z,1.39
2018-02-18T18:54:29.540Z,1.33
2018-02-18T18:56:23.917Z,1.22
2018-02-18T18:57:23.742Z,1.33
2018-02-18T18:59:17.245Z,1.36
2018-02-18T19:00:16.895Z,1.26
2018-02-18T19:02:10.395Z,1.26
2018-02-18T19:03:10.187Z,1.29
2018-02-18T19:05:04.749Z,1.37
2018-02-18T19:06:04.664Z,1.43
2018-02-18T19:07:57.669Z,1.42
2018-02-18T19:08:57.800Z,1.33
2018-02-18T19:10:51.079Z,1.33
2018-02-18T19:11:51.018Z,1.29